sensor_id;sensor_type;location;lat;lon;timestamp;P1;durP1;ratioP1;P2;durP2;ratioP2
49015;SDS011;34830;44.064;12.566;2023-07-13T00:00:26;13.80;;;3.33;;
49015;SDS011;34830;44.064;12.566;2023-07-13T00:02:52;21.58;;;3.08;;
49015;SDS011;34830;44.064;12.566;2023-07-13T00:05:21;18.20;;;3.10;;
49015;SDS011;34830;44.064;12.566;2023-07-13T00:07:48;21.38;;;3.55;;
49015;SDS011;34830;44.064;12.566;2023-07-13T00:10:15;13.35;;;3.03;;
49015;SDS011;34830;44.064;12.566;2023-07-13T00:12:43;19.35;;;3.70;;
49015;SDS011;34830;44.064;12.566;2023-07-13T00:15:12;17.90;;;3.75;;
49015;SDS011;34830;44.064;12.566;2023-07-13T00:17:42;25.23;;;4.72;;
49015;SDS011;34830;44.064;12.566;2023-07-13T00:20:10;16.38;;;3.60;;
49015;SDS011;34830;44.064;12.566;2023-07-13T00:22:37;13.73;;;3.42;;
49015;SDS011;34830;44.064;12.566;2023-07-13T00:25:03;13.57;;;3.97;;
49015;SDS011;34830;44.064;12.566;2023-07-13T00:27:29;23.08;;;5.15;;
49015;SDS011;34830;44.064;12.566;2023-07-13T00:29:57;18.95;;;3.75;;
49015;SDS011;34830;44.064;12.566;2023-07-13T00:32:24;22.48;;;3.33;;
49015;SDS011;34830;44.064;12.566;2023-07-13T00:34:55;20.83;;;4.00;;
49015;SDS011;34830;44.064;12.566;2023-07-13T00:37:21;14.00;;;3.15;;
49015;SDS011;34830;44.064;12.566;2023-07-13T00:39:47;19.70;;;3.42;;
49015;SDS011;34830;44.064;12.566;2023-07-13T00:42:14;18.17;;;3.38;;
49015;SDS011;34830;44.064;12.566;2023-07-13T00:44:40;18.05;;;3.35;;
49015;SDS011;34830;44.064;12.566;2023-07-13T00:47:07;13.70;;;2.88;;
49015;SDS011;34830;44.064;12.566;2023-07-13T00:49:33;12.00;;;3.25;;
49015;SDS011;34830;44.064;12.566;2023-07-13T00:52:07;15.40;;;3.08;;
49015;SDS011;34830;44.064;12.566;2023-07-13T00:54:42;19.83;;;3.95;;
49015;SDS011;34830;44.064;12.566;2023-07-13T00:57:12;12.98;;;3.80;;
49015;SDS011;34830;44.064;12.566;2023-07-13T00:59:42;14.60;;;3.20;;
49015;SDS011;34830;44.064;12.566;2023-07-13T01:02:11;15.38;;;3.60;;
49015;SDS011;34830;44.064;12.566;2023-07-13T01:04:37;19.48;;;4.30;;
49015;SDS011;34830;44.064;12.566;2023-07-13T01:07:04;17.52;;;3.58;;
49015;SDS011;34830;44.064;12.566;2023-07-13T01:09:32;13.13;;;3.50;;
49015;SDS011;34830;44.064;12.566;2023-07-13T01:11:58;18.35;;;3.83;;
49015;SDS011;34830;44.064;12.566;2023-07-13T01:14:25;19.23;;;3.83;;
49015;SDS011;34830;44.064;12.566;2023-07-13T01:16:51;22.55;;;4.10;;
49015;SDS011;34830;44.064;12.566;2023-07-13T01:21:51;17.58;;;3.28;;
49015;SDS011;34830;44.064;12.566;2023-07-13T01:24:18;13.45;;;3.88;;
49015;SDS011;34830;44.064;12.566;2023-07-13T01:26:44;27.00;;;4.13;;
49015;SDS011;34830;44.064;12.566;2023-07-13T01:29:10;22.33;;;3.90;;
49015;SDS011;34830;44.064;12.566;2023-07-13T01:31:38;18.05;;;3.70;;
49015;SDS011;34830;44.064;12.566;2023-07-13T01:34:04;21.25;;;3.50;;
49015;SDS011;34830;44.064;12.566;2023-07-13T01:36:30;23.23;;;3.88;;
49015;SDS011;34830;44.064;12.566;2023-07-13T01:38:56;23.27;;;3.97;;
49015;SDS011;34830;44.064;12.566;2023-07-13T01:41:23;19.40;;;3.35;;
49015;SDS011;34830;44.064;12.566;2023-07-13T01:43:49;18.90;;;3.85;;
49015;SDS011;34830;44.064;12.566;2023-07-13T01:46:15;31.42;;;4.53;;
49015;SDS011;34830;44.064;12.566;2023-07-13T01:48:41;26.60;;;4.97;;
49015;SDS011;34830;44.064;12.566;2023-07-13T01:51:07;18.60;;;4.45;;
49015;SDS011;34830;44.064;12.566;2023-07-13T01:53:33;27.95;;;4.57;;
49015;SDS011;34830;44.064;12.566;2023-07-13T01:56:01;20.90;;;3.95;;
49015;SDS011;34830;44.064;12.566;2023-07-13T01:58:27;23.33;;;4.13;;
49015;SDS011;34830;44.064;12.566;2023-07-13T02:00:53;19.10;;;6.03;;
49015;SDS011;34830;44.064;12.566;2023-07-13T02:03:20;26.27;;;4.43;;
49015;SDS011;34830;44.064;12.566;2023-07-13T02:05:46;24.70;;;5.18;;
49015;SDS011;34830;44.064;12.566;2023-07-13T02:08:12;20.25;;;4.13;;
49015;SDS011;34830;44.064;12.566;2023-07-13T02:10:38;29.13;;;4.45;;
49015;SDS011;34830;44.064;12.566;2023-07-13T02:13:05;27.25;;;4.63;;
49015;SDS011;34830;44.064;12.566;2023-07-13T02:15:32;13.88;;;3.92;;
49015;SDS011;34830;44.064;12.566;2023-07-13T02:17:58;24.08;;;4.72;;
49015;SDS011;34830;44.064;12.566;2023-07-13T02:20:25;16.85;;;5.03;;
49015;SDS011;34830;44.064;12.566;2023-07-13T02:22:52;19.42;;;5.20;;
49015;SDS011;34830;44.064;12.566;2023-07-13T02:25:20;18.35;;;4.78;;
49015;SDS011;34830;44.064;12.566;2023-07-13T02:27:48;24.95;;;4.75;;
49015;SDS011;34830;44.064;12.566;2023-07-13T02:30:16;18.33;;;4.18;;
49015;SDS011;34830;44.064;12.566;2023-07-13T02:32:43;19.52;;;4.30;;
49015;SDS011;34830;44.064;12.566;2023-07-13T02:35:10;17.27;;;5.40;;
49015;SDS011;34830;44.064;12.566;2023-07-13T02:37:37;17.85;;;4.13;;
49015;SDS011;34830;44.064;12.566;2023-07-13T02:40:03;14.63;;;3.60;;
49015;SDS011;34830;44.064;12.566;2023-07-13T02:42:35;30.83;;;5.13;;
49015;SDS011;34830;44.064;12.566;2023-07-13T02:45:01;21.15;;;5.60;;
49015;SDS011;34830;44.064;12.566;2023-07-13T02:47:28;21.70;;;5.63;;
49015;SDS011;34830;44.064;12.566;2023-07-13T02:49:54;28.70;;;5.68;;
49015;SDS011;34830;44.064;12.566;2023-07-13T02:52:20;14.80;;;4.47;;
49015;SDS011;34830;44.064;12.566;2023-07-13T02:54:46;26.50;;;5.25;;
49015;SDS011;34830;44.064;12.566;2023-07-13T02:57:12;19.75;;;4.38;;
49015;SDS011;34830;44.064;12.566;2023-07-13T02:59:38;20.02;;;4.80;;
49015;SDS011;34830;44.064;12.566;2023-07-13T03:02:04;24.35;;;4.43;;
49015;SDS011;34830;44.064;12.566;2023-07-13T03:04:30;18.02;;;4.60;;
49015;SDS011;34830;44.064;12.566;2023-07-13T03:06:56;16.58;;;3.83;;
49015;SDS011;34830;44.064;12.566;2023-07-13T03:09:25;19.35;;;5.18;;
49015;SDS011;34830;44.064;12.566;2023-07-13T03:11:54;21.88;;;4.95;;
49015;SDS011;34830;44.064;12.566;2023-07-13T03:14:25;19.80;;;4.85;;
49015;SDS011;34830;44.064;12.566;2023-07-13T03:16:52;22.98;;;4.82;;
49015;SDS011;34830;44.064;12.566;2023-07-13T03:19:20;25.67;;;5.78;;
49015;SDS011;34830;44.064;12.566;2023-07-13T03:21:49;18.85;;;4.60;;
49015;SDS011;34830;44.064;12.566;2023-07-13T03:24:15;18.02;;;5.85;;
49015;SDS011;34830;44.064;12.566;2023-07-13T03:26:41;18.40;;;4.60;;
49015;SDS011;34830;44.064;12.566;2023-07-13T03:29:08;22.48;;;4.78;;
49015;SDS011;34830;44.064;12.566;2023-07-13T03:31:35;16.13;;;4.15;;
49015;SDS011;34830;44.064;12.566;2023-07-13T03:34:02;19.52;;;4.50;;
49015;SDS011;34830;44.064;12.566;2023-07-13T03:36:30;18.20;;;4.47;;
49015;SDS011;34830;44.064;12.566;2023-07-13T03:38:59;17.92;;;5.10;;
49015;SDS011;34830;44.064;12.566;2023-07-13T03:41:47;26.27;;;4.80;;
49015;SDS011;34830;44.064;12.566;2023-07-13T03:44:15;17.65;;;5.03;;
49015;SDS011;34830;44.064;12.566;2023-07-13T03:46:42;19.77;;;5.45;;
49015;SDS011;34830;44.064;12.566;2023-07-13T03:49:09;21.98;;;4.50;;
49015;SDS011;34830;44.064;12.566;2023-07-13T03:51:35;25.77;;;5.13;;
49015;SDS011;34830;44.064;12.566;2023-07-13T03:54:02;18.98;;;4.22;;
49015;SDS011;34830;44.064;12.566;2023-07-13T03:56:28;17.17;;;4.45;;
49015;SDS011;34830;44.064;12.566;2023-07-13T03:58:56;17.25;;;5.03;;
49015;SDS011;34830;44.064;12.566;2023-07-13T04:01:23;26.70;;;5.80;;
49015;SDS011;34830;44.064;12.566;2023-07-13T04:03:51;22.75;;;4.57;;
49015;SDS011;34830;44.064;12.566;2023-07-13T04:06:19;23.92;;;5.95;;
49015;SDS011;34830;44.064;12.566;2023-07-13T04:08:51;18.65;;;5.18;;
49015;SDS011;34830;44.064;12.566;2023-07-13T04:11:19;20.83;;;4.78;;
49015;SDS011;34830;44.064;12.566;2023-07-13T04:13:46;21.05;;;4.50;;
49015;SDS011;34830;44.064;12.566;2023-07-13T04:16:13;22.98;;;5.57;;
49015;SDS011;34830;44.064;12.566;2023-07-13T04:18:40;25.05;;;5.40;;
49015;SDS011;34830;44.064;12.566;2023-07-13T04:21:07;19.02;;;4.72;;
49015;SDS011;34830;44.064;12.566;2023-07-13T04:23:35;21.67;;;4.20;;
49015;SDS011;34830;44.064;12.566;2023-07-13T04:26:01;18.88;;;5.35;;
49015;SDS011;34830;44.064;12.566;2023-07-13T04:28:27;28.25;;;5.75;;
49015;SDS011;34830;44.064;12.566;2023-07-13T04:30:53;24.73;;;5.35;;
49015;SDS011;34830;44.064;12.566;2023-07-13T04:33:20;21.70;;;5.65;;
49015;SDS011;34830;44.064;12.566;2023-07-13T04:35:48;19.60;;;5.28;;
49015;SDS011;34830;44.064;12.566;2023-07-13T04:38:15;27.42;;;6.18;;
49015;SDS011;34830;44.064;12.566;2023-07-13T04:40:45;24.58;;;4.22;;
49015;SDS011;34830;44.064;12.566;2023-07-13T04:43:11;14.75;;;5.47;;
49015;SDS011;34830;44.064;12.566;2023-07-13T04:45:37;20.00;;;4.68;;
49015;SDS011;34830;44.064;12.566;2023-07-13T04:48:03;18.20;;;4.60;;
49015;SDS011;34830;44.064;12.566;2023-07-13T04:50:29;25.23;;;5.60;;
49015;SDS011;34830;44.064;12.566;2023-07-13T04:52:56;18.13;;;5.03;;
49015;SDS011;34830;44.064;12.566;2023-07-13T04:55:22;18.58;;;4.88;;
49015;SDS011;34830;44.064;12.566;2023-07-13T04:57:48;20.67;;;4.85;;
49015;SDS011;34830;44.064;12.566;2023-07-13T05:00:14;31.60;;;5.70;;
49015;SDS011;34830;44.064;12.566;2023-07-13T05:02:43;26.38;;;5.43;;
49015;SDS011;34830;44.064;12.566;2023-07-13T05:05:09;28.13;;;5.25;;
49015;SDS011;34830;44.064;12.566;2023-07-13T05:07:35;25.95;;;6.22;;
49015;SDS011;34830;44.064;12.566;2023-07-13T05:10:02;21.75;;;4.60;;
49015;SDS011;34830;44.064;12.566;2023-07-13T05:12:29;19.48;;;6.13;;
49015;SDS011;34830;44.064;12.566;2023-07-13T05:14:56;17.50;;;5.07;;
49015;SDS011;34830;44.064;12.566;2023-07-13T05:17:22;14.40;;;4.68;;
49015;SDS011;34830;44.064;12.566;2023-07-13T05:19:48;21.83;;;5.25;;
49015;SDS011;34830;44.064;12.566;2023-07-13T05:22:14;13.80;;;4.22;;
49015;SDS011;34830;44.064;12.566;2023-07-13T05:24:40;20.20;;;4.13;;
49015;SDS011;34830;44.064;12.566;2023-07-13T05:27:06;23.13;;;4.30;;
49015;SDS011;34830;44.064;12.566;2023-07-13T05:29:32;17.58;;;3.35;;
49015;SDS011;34830;44.064;12.566;2023-07-13T05:31:58;17.40;;;4.10;;
49015;SDS011;34830;44.064;12.566;2023-07-13T05:34:24;14.27;;;3.88;;
49015;SDS011;34830;44.064;12.566;2023-07-13T05:36:50;14.30;;;4.13;;
49015;SDS011;34830;44.064;12.566;2023-07-13T05:39:17;16.63;;;5.00;;
49015;SDS011;34830;44.064;12.566;2023-07-13T05:41:44;30.08;;;5.95;;
49015;SDS011;34830;44.064;12.566;2023-07-13T05:44:10;15.52;;;4.32;;
49015;SDS011;34830;44.064;12.566;2023-07-13T05:46:36;17.13;;;4.88;;
49015;SDS011;34830;44.064;12.566;2023-07-13T05:49:02;11.90;;;5.25;;
49015;SDS011;34830;44.064;12.566;2023-07-13T05:51:29;18.65;;;5.00;;
49015;SDS011;34830;44.064;12.566;2023-07-13T05:53:55;19.52;;;5.78;;
49015;SDS011;34830;44.064;12.566;2023-07-13T05:56:21;15.98;;;5.32;;
49015;SDS011;34830;44.064;12.566;2023-07-13T05:58:47;19.45;;;5.90;;
49015;SDS011;34830;44.064;12.566;2023-07-13T06:01:14;19.67;;;6.20;;
49015;SDS011;34830;44.064;12.566;2023-07-13T06:03:41;17.48;;;5.13;;
49015;SDS011;34830;44.064;12.566;2023-07-13T06:06:08;19.67;;;5.70;;
49015;SDS011;34830;44.064;12.566;2023-07-13T06:08:35;17.10;;;5.28;;
49015;SDS011;34830;44.064;12.566;2023-07-13T06:11:06;17.38;;;5.85;;
49015;SDS011;34830;44.064;12.566;2023-07-13T06:13:33;17.70;;;6.43;;
49015;SDS011;34830;44.064;12.566;2023-07-13T06:16:00;16.65;;;5.80;;
49015;SDS011;34830;44.064;12.566;2023-07-13T06:18:26;15.18;;;5.88;;
49015;SDS011;34830;44.064;12.566;2023-07-13T06:20:52;27.05;;;6.45;;
49015;SDS011;34830;44.064;12.566;2023-07-13T06:23:18;17.10;;;5.82;;
49015;SDS011;34830;44.064;12.566;2023-07-13T06:25:44;19.67;;;6.07;;
49015;SDS011;34830;44.064;12.566;2023-07-13T06:28:10;17.48;;;5.55;;
49015;SDS011;34830;44.064;12.566;2023-07-13T06:30:38;13.75;;;6.25;;
49015;SDS011;34830;44.064;12.566;2023-07-13T06:33:05;17.05;;;5.63;;
49015;SDS011;34830;44.064;12.566;2023-07-13T06:35:31;19.70;;;6.30;;
49015;SDS011;34830;44.064;12.566;2023-07-13T06:37:57;15.65;;;6.25;;
49015;SDS011;34830;44.064;12.566;2023-07-13T06:40:23;20.58;;;6.63;;
49015;SDS011;34830;44.064;12.566;2023-07-13T06:42:49;21.35;;;6.10;;
49015;SDS011;34830;44.064;12.566;2023-07-13T06:45:15;14.27;;;5.22;;
49015;SDS011;34830;44.064;12.566;2023-07-13T06:47:41;18.85;;;5.70;;
49015;SDS011;34830;44.064;12.566;2023-07-13T06:50:07;20.48;;;5.68;;
49015;SDS011;34830;44.064;12.566;2023-07-13T06:52:34;16.70;;;5.43;;
49015;SDS011;34830;44.064;12.566;2023-07-13T06:55:00;10.32;;;5.10;;
49015;SDS011;34830;44.064;12.566;2023-07-13T06:57:26;23.23;;;6.20;;
49015;SDS011;34830;44.064;12.566;2023-07-13T06:59:53;22.40;;;5.80;;
49015;SDS011;34830;44.064;12.566;2023-07-13T07:02:19;17.98;;;6.05;;
49015;SDS011;34830;44.064;12.566;2023-07-13T07:04:45;16.40;;;5.65;;
49015;SDS011;34830;44.064;12.566;2023-07-13T07:07:11;14.55;;;4.50;;
49015;SDS011;34830;44.064;12.566;2023-07-13T07:09:37;14.57;;;6.30;;
49015;SDS011;34830;44.064;12.566;2023-07-13T07:12:03;14.77;;;5.15;;
49015;SDS011;34830;44.064;12.566;2023-07-13T07:14:30;21.58;;;6.47;;
49015;SDS011;34830;44.064;12.566;2023-07-13T07:16:57;19.90;;;5.68;;
49015;SDS011;34830;44.064;12.566;2023-07-13T07:19:24;15.32;;;5.60;;
49015;SDS011;34830;44.064;12.566;2023-07-13T07:21:50;15.63;;;5.35;;
49015;SDS011;34830;44.064;12.566;2023-07-13T07:24:16;18.67;;;5.68;;
49015;SDS011;34830;44.064;12.566;2023-07-13T07:26:42;21.65;;;5.35;;
49015;SDS011;34830;44.064;12.566;2023-07-13T07:29:08;18.50;;;5.55;;
49015;SDS011;34830;44.064;12.566;2023-07-13T07:31:34;18.48;;;5.68;;
49015;SDS011;34830;44.064;12.566;2023-07-13T07:34:02;17.20;;;5.00;;
49015;SDS011;34830;44.064;12.566;2023-07-13T07:36:28;13.18;;;4.60;;
49015;SDS011;34830;44.064;12.566;2023-07-13T07:38:55;18.30;;;5.07;;
49015;SDS011;34830;44.064;12.566;2023-07-13T07:41:21;18.73;;;4.47;;
49015;SDS011;34830;44.064;12.566;2023-07-13T07:43:47;23.85;;;5.50;;
49015;SDS011;34830;44.064;12.566;2023-07-13T07:46:13;20.88;;;5.25;;
49015;SDS011;34830;44.064;12.566;2023-07-13T07:48:39;27.02;;;6.50;;
49015;SDS011;34830;44.064;12.566;2023-07-13T07:51:05;19.98;;;5.80;;
49015;SDS011;34830;44.064;12.566;2023-07-13T07:53:31;15.77;;;5.03;;
49015;SDS011;34830;44.064;12.566;2023-07-13T07:55:57;12.27;;;5.13;;
49015;SDS011;34830;44.064;12.566;2023-07-13T07:58:23;14.18;;;5.70;;
49015;SDS011;34830;44.064;12.566;2023-07-13T08:00:49;17.90;;;6.60;;
49015;SDS011;34830;44.064;12.566;2023-07-13T08:03:15;17.17;;;4.80;;
49015;SDS011;34830;44.064;12.566;2023-07-13T08:05:41;21.30;;;5.18;;
49015;SDS011;34830;44.064;12.566;2023-07-13T08:08:07;13.70;;;4.32;;
49015;SDS011;34830;44.064;12.566;2023-07-13T08:10:35;13.35;;;5.15;;
49015;SDS011;34830;44.064;12.566;2023-07-13T08:13:02;12.82;;;4.53;;
49015;SDS011;34830;44.064;12.566;2023-07-13T08:15:28;13.75;;;4.85;;
49015;SDS011;34830;44.064;12.566;2023-07-13T08:17:54;13.80;;;4.93;;
49015;SDS011;34830;44.064;12.566;2023-07-13T08:20:20;16.67;;;5.75;;
49015;SDS011;34830;44.064;12.566;2023-07-13T08:22:47;10.32;;;4.30;;
49015;SDS011;34830;44.064;12.566;2023-07-13T08:25:13;16.15;;;5.57;;
49015;SDS011;34830;44.064;12.566;2023-07-13T08:27:39;15.73;;;6.63;;
49015;SDS011;34830;44.064;12.566;2023-07-13T08:30:05;16.27;;;5.95;;
49015;SDS011;34830;44.064;12.566;2023-07-13T08:32:31;15.50;;;5.45;;
49015;SDS011;34830;44.064;12.566;2023-07-13T08:34:57;15.80;;;6.13;;
49015;SDS011;34830;44.064;12.566;2023-07-13T08:37:23;21.55;;;7.32;;
49015;SDS011;34830;44.064;12.566;2023-07-13T08:39:49;18.55;;;6.60;;
49015;SDS011;34830;44.064;12.566;2023-07-13T08:42:32;18.70;;;6.63;;
49015;SDS011;34830;44.064;12.566;2023-07-13T08:47:37;23.10;;;8.45;;
49015;SDS011;34830;44.064;12.566;2023-07-13T08:50:08;19.73;;;5.80;;
49015;SDS011;34830;44.064;12.566;2023-07-13T08:58:13;20.83;;;5.57;;
49015;SDS011;34830;44.064;12.566;2023-07-13T09:00:46;16.27;;;5.57;;
49015;SDS011;34830;44.064;12.566;2023-07-13T09:03:25;15.23;;;6.43;;
49015;SDS011;34830;44.064;12.566;2023-07-13T09:05:58;11.55;;;4.65;;
49015;SDS011;34830;44.064;12.566;2023-07-13T09:10:58;18.00;;;5.45;;
49015;SDS011;34830;44.064;12.566;2023-07-13T09:13:38;23.60;;;5.20;;
49015;SDS011;34830;44.064;12.566;2023-07-13T09:16:09;20.15;;;6.13;;
49015;SDS011;34830;44.064;12.566;2023-07-13T09:18:38;27.63;;;6.97;;
49015;SDS011;34830;44.064;12.566;2023-07-13T09:23:40;15.13;;;5.78;;
49015;SDS011;34830;44.064;12.566;2023-07-13T09:26:18;15.38;;;6.00;;
49015;SDS011;34830;44.064;12.566;2023-07-13T09:28:47;20.95;;;7.47;;
49015;SDS011;34830;44.064;12.566;2023-07-13T09:31:17;18.60;;;7.20;;
49015;SDS011;34830;44.064;12.566;2023-07-13T09:33:47;21.52;;;7.60;;
49015;SDS011;34830;44.064;12.566;2023-07-13T09:47:28;13.70;;;6.35;;
49015;SDS011;34830;44.064;12.566;2023-07-13T09:49:57;13.75;;;6.93;;
49015;SDS011;34830;44.064;12.566;2023-07-13T09:52:25;24.75;;;7.18;;
49015;SDS011;34830;44.064;12.566;2023-07-13T09:54:53;12.13;;;6.63;;
49015;SDS011;34830;44.064;12.566;2023-07-13T09:57:25;18.23;;;6.82;;
49015;SDS011;34830;44.064;12.566;2023-07-13T09:59:52;19.90;;;6.50;;
49015;SDS011;34830;44.064;12.566;2023-07-13T10:02:23;17.48;;;6.32;;
49015;SDS011;34830;44.064;12.566;2023-07-13T10:07:29;14.77;;;5.93;;
49015;SDS011;34830;44.064;12.566;2023-07-13T10:09:58;17.40;;;7.15;;
49015;SDS011;34830;44.064;12.566;2023-07-13T10:12:27;15.35;;;5.57;;
49015;SDS011;34830;44.064;12.566;2023-07-13T10:14:56;15.10;;;5.35;;
49015;SDS011;34830;44.064;12.566;2023-07-13T10:17:25;12.02;;;4.78;;
49015;SDS011;34830;44.064;12.566;2023-07-13T10:20:00;10.43;;;5.10;;
49015;SDS011;34830;44.064;12.566;2023-07-13T10:22:37;13.95;;;5.15;;
49015;SDS011;34830;44.064;12.566;2023-07-13T10:28:43;14.43;;;5.00;;
49015;SDS011;34830;44.064;12.566;2023-07-13T10:30:53;13.32;;;5.47;;
49015;SDS011;34830;44.064;12.566;2023-07-13T10:33:22;12.80;;;5.40;;
49015;SDS011;34830;44.064;12.566;2023-07-13T10:35:49;20.90;;;6.15;;
49015;SDS011;34830;44.064;12.566;2023-07-13T10:38:18;17.92;;;5.53;;
49015;SDS011;34830;44.064;12.566;2023-07-13T10:41:04;14.95;;;4.88;;
49015;SDS011;34830;44.064;12.566;2023-07-13T10:43:37;15.10;;;5.65;;
49015;SDS011;34830;44.064;12.566;2023-07-13T10:46:08;22.42;;;6.07;;
49015;SDS011;34830;44.064;12.566;2023-07-13T10:48:37;12.65;;;4.75;;
49015;SDS011;34830;44.064;12.566;2023-07-13T10:51:05;11.18;;;4.32;;
49015;SDS011;34830;44.064;12.566;2023-07-13T10:53:33;9.70;;;4.43;;
49015;SDS011;34830;44.064;12.566;2023-07-13T10:56:02;14.15;;;4.50;;
49015;SDS011;34830;44.064;12.566;2023-07-13T11:01:03;8.93;;;4.10;;
49015;SDS011;34830;44.064;12.566;2023-07-13T11:03:33;8.30;;;4.13;;
49015;SDS011;34830;44.064;12.566;2023-07-13T11:06:09;21.48;;;5.75;;
49015;SDS011;34830;44.064;12.566;2023-07-13T11:18:51;14.65;;;5.72;;
49015;SDS011;34830;44.064;12.566;2023-07-13T11:21:23;16.88;;;3.55;;
49015;SDS011;34830;44.064;12.566;2023-07-13T11:23:54;31.48;;;3.88;;
49015;SDS011;34830;44.064;12.566;2023-07-13T11:31:58;16.80;;;2.75;;
49015;SDS011;34830;44.064;12.566;2023-07-13T11:34:33;23.05;;;3.60;;
49015;SDS011;34830;44.064;12.566;2023-07-13T11:37:02;13.57;;;3.42;;
49015;SDS011;34830;44.064;12.566;2023-07-13T11:39:32;19.95;;;4.15;;
49015;SDS011;34830;44.064;12.566;2023-07-13T11:42:02;15.85;;;4.57;;
49015;SDS011;34830;44.064;12.566;2023-07-13T11:44:29;13.85;;;3.67;;
49015;SDS011;34830;44.064;12.566;2023-07-13T11:46:59;11.43;;;4.00;;
49015;SDS011;34830;44.064;12.566;2023-07-13T11:49:30;12.23;;;3.63;;
49015;SDS011;34830;44.064;12.566;2023-07-13T11:51:57;10.60;;;3.47;;
49015;SDS011;34830;44.064;12.566;2023-07-13T11:57:10;12.75;;;3.45;;
49015;SDS011;34830;44.064;12.566;2023-07-13T11:59:41;10.15;;;4.55;;
49015;SDS011;34830;44.064;12.566;2023-07-13T12:02:14;17.95;;;4.00;;
49015;SDS011;34830;44.064;12.566;2023-07-13T12:04:44;10.85;;;3.58;;
49015;SDS011;34830;44.064;12.566;2023-07-13T12:07:17;17.50;;;4.50;;
49015;SDS011;34830;44.064;12.566;2023-07-13T12:09:44;15.98;;;4.22;;
49015;SDS011;34830;44.064;12.566;2023-07-13T12:12:16;12.85;;;3.97;;
49015;SDS011;34830;44.064;12.566;2023-07-13T12:14:44;11.98;;;3.65;;
49015;SDS011;34830;44.064;12.566;2023-07-13T12:17:20;10.43;;;3.90;;
49015;SDS011;34830;44.064;12.566;2023-07-13T12:19:48;9.63;;;3.30;;
49015;SDS011;34830;44.064;12.566;2023-07-13T12:22:16;13.20;;;4.18;;
49015;SDS011;34830;44.064;12.566;2023-07-13T12:24:43;17.42;;;4.75;;
49015;SDS011;34830;44.064;12.566;2023-07-13T12:29:49;11.50;;;4.32;;
49015;SDS011;34830;44.064;12.566;2023-07-13T12:32:17;10.70;;;3.88;;
49015;SDS011;34830;44.064;12.566;2023-07-13T12:34:53;11.15;;;4.40;;
49015;SDS011;34830;44.064;12.566;2023-07-13T12:37:45;15.55;;;4.18;;
49015;SDS011;34830;44.064;12.566;2023-07-13T12:40:16;15.77;;;4.32;;
49015;SDS011;34830;44.064;12.566;2023-07-13T12:42:46;15.73;;;4.63;;
49015;SDS011;34830;44.064;12.566;2023-07-13T12:45:26;17.88;;;5.00;;
49015;SDS011;34830;44.064;12.566;2023-07-13T12:47:58;14.57;;;4.97;;
49015;SDS011;34830;44.064;12.566;2023-07-13T12:50:34;10.50;;;4.45;;
49015;SDS011;34830;44.064;12.566;2023-07-13T12:53:03;15.05;;;4.68;;
49015;SDS011;34830;44.064;12.566;2023-07-13T12:55:40;11.32;;;5.20;;
49015;SDS011;34830;44.064;12.566;2023-07-13T12:58:24;15.10;;;5.85;;
49015;SDS011;34830;44.064;12.566;2023-07-13T13:00:56;10.05;;;5.03;;
49015;SDS011;34830;44.064;12.566;2023-07-13T13:03:26;16.00;;;4.97;;
49015;SDS011;34830;44.064;12.566;2023-07-13T13:05:57;14.25;;;5.10;;
49015;SDS011;34830;44.064;12.566;2023-07-13T13:08:29;12.40;;;4.80;;
49015;SDS011;34830;44.064;12.566;2023-07-13T13:11:01;17.08;;;5.18;;
49015;SDS011;34830;44.064;12.566;2023-07-13T13:13:28;14.10;;;4.88;;
49015;SDS011;34830;44.064;12.566;2023-07-13T13:15:54;11.88;;;4.40;;
49015;SDS011;34830;44.064;12.566;2023-07-13T13:18:22;12.88;;;4.70;;
49015;SDS011;34830;44.064;12.566;2023-07-13T13:20:49;13.20;;;4.57;;
49015;SDS011;34830;44.064;12.566;2023-07-13T13:23:17;9.73;;;4.55;;
49015;SDS011;34830;44.064;12.566;2023-07-13T13:25:45;15.88;;;5.75;;
49015;SDS011;34830;44.064;12.566;2023-07-13T13:28:15;24.30;;;6.57;;
49015;SDS011;34830;44.064;12.566;2023-07-13T13:30:43;13.35;;;5.00;;
49015;SDS011;34830;44.064;12.566;2023-07-13T13:33:11;11.43;;;4.78;;
49015;SDS011;34830;44.064;12.566;2023-07-13T13:35:40;11.90;;;4.60;;
49015;SDS011;34830;44.064;12.566;2023-07-13T13:38:13;13.98;;;4.72;;
49015;SDS011;34830;44.064;12.566;2023-07-13T13:40:41;16.95;;;4.80;;
49015;SDS011;34830;44.064;12.566;2023-07-13T13:43:18;12.20;;;3.88;;
49015;SDS011;34830;44.064;12.566;2023-07-13T13:45:46;9.48;;;4.03;;
49015;SDS011;34830;44.064;12.566;2023-07-13T13:48:16;13.75;;;5.50;;
49015;SDS011;34830;44.064;12.566;2023-07-13T13:50:44;13.85;;;5.18;;
49015;SDS011;34830;44.064;12.566;2023-07-13T13:53:11;16.45;;;5.15;;
49015;SDS011;34830;44.064;12.566;2023-07-13T13:55:39;10.95;;;4.32;;
49015;SDS011;34830;44.064;12.566;2023-07-13T13:58:08;19.48;;;5.05;;
49015;SDS011;34830;44.064;12.566;2023-07-13T14:00:36;12.88;;;4.15;;
49015;SDS011;34830;44.064;12.566;2023-07-13T14:03:03;13.00;;;3.80;;
49015;SDS011;34830;44.064;12.566;2023-07-13T14:05:29;8.27;;;3.13;;
49015;SDS011;34830;44.064;12.566;2023-07-13T14:07:56;9.00;;;3.20;;
49015;SDS011;34830;44.064;12.566;2023-07-13T14:10:25;11.13;;;3.60;;
49015;SDS011;34830;44.064;12.566;2023-07-13T14:12:53;18.65;;;3.92;;
49015;SDS011;34830;44.064;12.566;2023-07-13T14:17:52;12.57;;;3.95;;
49015;SDS011;34830;44.064;12.566;2023-07-13T14:20:19;13.60;;;4.00;;
49015;SDS011;34830;44.064;12.566;2023-07-13T14:22:46;12.88;;;3.47;;
49015;SDS011;34830;44.064;12.566;2023-07-13T14:25:12;13.00;;;4.30;;
49015;SDS011;34830;44.064;12.566;2023-07-13T14:27:40;12.23;;;3.22;;
49015;SDS011;34830;44.064;12.566;2023-07-13T14:30:16;14.80;;;3.22;;
49015;SDS011;34830;44.064;12.566;2023-07-13T14:32:44;16.20;;;4.60;;
49015;SDS011;34830;44.064;12.566;2023-07-13T14:35:11;12.00;;;5.65;;
49015;SDS011;34830;44.064;12.566;2023-07-13T14:37:39;16.13;;;4.28;;
49015;SDS011;34830;44.064;12.566;2023-07-13T14:42:39;8.77;;;3.67;;
49015;SDS011;34830;44.064;12.566;2023-07-13T14:45:11;12.63;;;4.18;;
49015;SDS011;34830;44.064;12.566;2023-07-13T14:47:38;12.35;;;4.60;;
49015;SDS011;34830;44.064;12.566;2023-07-13T14:50:04;16.05;;;4.38;;
49015;SDS011;34830;44.064;12.566;2023-07-13T14:52:31;10.88;;;3.60;;
49015;SDS011;34830;44.064;12.566;2023-07-13T14:54:57;14.07;;;4.13;;
49015;SDS011;34830;44.064;12.566;2023-07-13T14:57:23;16.73;;;5.60;;
49015;SDS011;34830;44.064;12.566;2023-07-13T14:59:49;13.52;;;5.28;;
49015;SDS011;34830;44.064;12.566;2023-07-13T15:04:56;15.48;;;4.70;;
49015;SDS011;34830;44.064;12.566;2023-07-13T15:07:22;10.25;;;4.43;;
49015;SDS011;34830;44.064;12.566;2023-07-13T15:09:49;11.32;;;4.38;;
49015;SDS011;34830;44.064;12.566;2023-07-13T15:12:16;15.07;;;4.38;;
49015;SDS011;34830;44.064;12.566;2023-07-13T15:14:43;12.52;;;4.45;;
49015;SDS011;34830;44.064;12.566;2023-07-13T15:17:17;14.27;;;4.93;;
49015;SDS011;34830;44.064;12.566;2023-07-13T15:19:48;13.85;;;4.57;;
49015;SDS011;34830;44.064;12.566;2023-07-13T15:22:15;12.57;;;5.32;;
49015;SDS011;34830;44.064;12.566;2023-07-13T15:24:41;11.85;;;4.30;;
49015;SDS011;34830;44.064;12.566;2023-07-13T15:27:11;21.05;;;4.50;;
49015;SDS011;34830;44.064;12.566;2023-07-13T15:29:38;12.73;;;3.88;;